createdAt,value
2023-03-02T00:38:17.894Z,246.64
2023-03-02T00:39:17.848Z,246.71
2023-03-02T00:40:17.976Z,247.39
2023-03-02T00:41:18.113Z,250.00
2023-03-02T00:42:18.275Z,249.59
2023-03-02T00:43:18.505Z,250.00
2023-03-02T00:44:18.618Z,249.40
2023-03-02T00:45:18.774Z,247.24
2023-03-02T00:46:19.029Z,241.55
2023-03-02T00:47:19.216Z,235.96
2023-03-02T00:48:19.403Z,233.17
2023-03-02T00:49:19.529Z,231.12
2023-03-02T00:50:19.651Z,231.72
2023-03-02T00:51:19.788Z,234.60
2023-03-02T00:52:19.920Z,235.86
2023-03-02T00:53:20.042Z,236.25
2023-03-02T00:54:20.175Z,236.04
2023-03-02T00:55:20.316Z,232.54
2023-03-02T00:56:20.442Z,231.64
2023-03-02T00:57:20.565Z,230.10
2023-03-02T00:58:20.688Z,227.68
2023-03-02T00:59:20.813Z,224.82
2023-03-02T01:00:20.931Z,223.73
2023-03-02T01:01:21.080Z,225.55
2023-03-02T01:02:21.273Z,228.25
2023-03-02T01:03:21.400Z,230.86
2023-03-02T01:04:21.463Z,231.52
2023-03-02T01:05:21.621Z,230.99
2023-03-02T01:06:21.746Z,231.03
2023-03-02T01:07:21.875Z,231.32
2023-03-02T01:08:22.017Z,231.98
2023-03-02T01:09:22.161Z,233.35
2023-03-02T01:10:22.315Z,234.13
2023-03-02T01:11:22.433Z,233.28
2023-03-02T01:12:22.553Z,228.80
2023-03-02T01:13:22.711Z,227.41
2023-03-02T01:14:22.809Z,228.11
2023-03-02T01:15:22.951Z,224.99
2023-03-02T01:16:23.095Z,222.23
2023-03-02T01:17:23.192Z,222.92
2023-03-02T01:18:23.329Z,224.81
2023-03-02T01:19:23.453Z,226.46
2023-03-02T01:20:23.593Z,231.66
2023-03-02T01:21:23.727Z,236.01
2023-03-02T01:22:23.862Z,239.40
2023-03-02T01:23:23.987Z,241.29
2023-03-02T01:24:24.110Z,238.08
2023-03-02T01:25:24.251Z,236.56
2023-03-02T01:26:24.379Z,236.72
2023-03-02T01:27:24.510Z,237.20
2023-03-02T01:28:24.649Z,238.47
2023-03-02T01:29:24.807Z,238.58
2023-03-02T01:30:24.978Z,234.36
2023-03-02T01:31:25.219Z,230.57
2023-03-02T01:32:25.395Z,226.99
2023-03-02T01:33:25.596Z,224.50
2023-03-02T01:34:25.801Z,224.22
2023-03-02T01:36:26.214Z,230.25
2023-03-02T01:37:26.424Z,228.99
2023-03-02T01:38:26.658Z,224.83
2023-03-02T01:39:26.848Z,222.27
2023-03-02T01:40:27.077Z,220.95
2023-03-02T01:41:27.349Z,221.98
2023-03-02T01:42:27.487Z,223.92
2023-03-02T01:43:27.686Z,224.53
2023-03-02T01:44:27.888Z,223.30
2023-03-02T01:45:28.255Z,222.00
2023-03-02T01:46:28.471Z,220.64
2023-03-02T01:47:28.750Z,222.31
2023-03-02T01:48:29.014Z,224.92
2023-03-02T01:49:29.250Z,226.53
2023-03-02T01:50:29.416Z,225.08
2023-03-02T01:51:29.586Z,227.21
2023-03-02T01:52:29.802Z,228.29
2023-03-02T01:54:30.373Z,230.74
2023-03-02T01:55:30.611Z,230.64
2023-03-02T01:56:31.331Z,230.53
2023-03-02T01:57:31.031Z,234.45
2023-03-02T01:58:31.160Z,237.39
2023-03-02T01:59:31.297Z,241.26
2023-03-02T02:00:31.428Z,243.91
2023-03-02T02:02:31.681Z,250.06
2023-03-02T02:54:07.853Z,107.21
2023-03-02T02:55:08.008Z,97.70
2023-03-02T02:56:08.218Z,169.24
2023-03-02T02:57:08.406Z,223.34
2023-03-02T02:58:08.637Z,251.91
2023-03-02T02:59:08.867Z,251.86
2023-03-02T03:00:09.087Z,251.41
2023-03-02T03:49:17.791Z,249.91
2023-03-02T04:42:27.893Z,25.83
2023-03-02T04:43:28.101Z,16.22
2023-03-02T04:44:28.322Z,20.66
2023-03-02T04:45:28.559Z,24.71
2023-03-02T04:46:28.860Z,27.93
2023-03-02T04:47:28.859Z,43.01
2023-03-02T04:48:29.123Z,43.04
2023-03-02T04:49:29.326Z,43.48
2023-03-02T04:50:29.533Z,44.45
2023-03-02T04:51:29.727Z,52.40
2023-03-02T04:52:29.928Z,73.65
2023-03-02T04:53:30.133Z,91.81
2023-03-02T04:54:30.360Z,110.43
2023-03-02T04:55:30.573Z,106.45
2023-03-02T04:56:31.110Z,100.91
2023-03-02T04:57:30.980Z,90.43
2023-03-02T04:58:30.765Z,50.17
2023-03-02T04:59:30.771Z,27.56
2023-03-02T05:00:33.274Z,23.97
2023-03-02T05:01:30.780Z,27.11
2023-03-02T05:02:30.814Z,24.13
2023-03-02T05:31:30.278Z,236.15
2023-03-02T05:33:30.072Z,229.65
2023-03-02T05:34:30.053Z,234.29
2023-03-02T05:35:30.051Z,241.73
2023-03-02T05:36:30.011Z,231.37
2023-03-02T05:37:29.981Z,229.25
2023-03-02T05:38:29.974Z,235.35
2023-03-02T05:39:30.673Z,246.13
2023-03-02T05:40:30.016Z,237.46
2023-03-02T05:41:30.037Z,232.85
2023-03-02T05:42:30.024Z,222.94
2023-03-02T05:43:30.034Z,185.37
2023-03-02T05:44:30.035Z,137.29
2023-03-02T05:45:30.049Z,108.65
2023-03-02T05:46:30.161Z,77.91
2023-03-02T05:47:30.089Z,63.59
2023-03-02T05:48:30.113Z,49.81
2023-03-02T05:49:30.127Z,42.10
2023-03-02T05:50:30.144Z,33.92
2023-03-02T05:51:30.155Z,28.23
2023-03-02T05:52:30.217Z,24.86
2023-03-02T05:53:30.320Z,32.81
2023-03-02T05:54:30.212Z,40.66
2023-03-02T05:55:30.223Z,39.06
2023-03-02T05:56:30.470Z,37.40
2023-03-02T05:57:30.218Z,35.09
2023-03-02T05:58:30.214Z,33.13
2023-03-02T05:59:30.204Z,34.26
2023-03-02T06:00:30.201Z,34.15
2023-03-02T06:01:30.221Z,35.33
2023-03-02T06:02:30.184Z,32.81
2023-03-02T06:03:30.218Z,32.08
2023-03-02T06:04:30.120Z,37.05
2023-03-02T06:05:30.178Z,42.01
2023-03-02T06:35:30.935Z,252.26
2023-03-02T08:39:37.877Z,131.61
2023-03-02T08:40:38.233Z,137.19
2023-03-02T08:41:38.312Z,136.70
2023-03-02T08:42:38.580Z,131.96
2023-03-02T08:43:38.688Z,128.64
2023-03-02T08:44:38.924Z,108.13
2023-03-02T08:45:39.063Z,106.36
2023-03-02T08:46:39.219Z,106.83
2023-03-02T08:47:39.408Z,106.42
2023-03-02T08:48:39.606Z,79.23
2023-03-02T08:49:40.193Z,71.96
2023-03-02T08:50:39.756Z,65.74
2023-03-02T08:51:39.720Z,56.01
2023-03-02T08:52:39.726Z,45.24
2023-03-02T08:53:39.676Z,43.15
2023-03-02T08:54:39.701Z,45.13
2023-03-02T08:55:39.634Z,54.57
2023-03-02T08:56:39.609Z,51.92
2023-03-02T08:57:39.578Z,36.23
2023-03-02T08:58:39.566Z,25.07
2023-03-02T08:59:39.561Z,22.56
2023-03-02T09:01:39.478Z,23.19
2023-03-02T09:02:39.364Z,23.77
2023-03-02T09:03:39.298Z,30.02
2023-03-02T09:04:39.367Z,40.56
2023-03-02T09:05:39.161Z,50.88
2023-03-02T09:06:39.088Z,60.11
2023-03-02T09:07:39.018Z,65.33
2023-03-02T09:08:38.994Z,58.21
2023-03-02T09:09:38.881Z,54.21
2023-03-02T09:10:38.820Z,43.92
2023-03-02T09:11:38.736Z,30.04
2023-03-02T09:12:38.710Z,27.60
2023-03-02T09:13:38.587Z,25.00
2023-03-02T09:14:38.564Z,26.82
2023-03-02T09:15:38.449Z,27.05
2023-03-02T09:16:38.588Z,27.92
2023-03-02T09:17:38.733Z,35.80
2023-03-02T09:18:38.871Z,42.26
2023-03-02T09:19:39.077Z,34.73
2023-03-02T09:20:39.280Z,31.40
2023-03-02T09:21:39.452Z,37.11
2023-03-02T09:22:39.654Z,41.88
2023-03-02T09:23:39.847Z,46.43
2023-03-02T09:24:40.169Z,43.42
2023-03-02T09:25:40.322Z,45.34
2023-03-02T09:27:40.426Z,38.17
2023-03-02T09:28:40.380Z,36.49
2023-03-02T09:29:40.343Z,37.60
2023-03-02T09:31:40.273Z,46.72
2023-03-02T09:32:40.377Z,44.58
2023-03-02T09:34:40.101Z,43.12
2023-03-02T09:35:40.035Z,43.10
2023-03-02T09:37:39.958Z,41.69
2023-03-02T09:39:39.860Z,25.69
2023-03-02T09:42:44.167Z,35.98
2023-03-02T09:58:38.090Z,41.88
2023-03-02T09:59:37.984Z,40.85
2023-03-02T10:00:37.923Z,6.63
2023-03-02T10:01:37.883Z,0.00
2023-03-02T10:02:37.854Z,0.00
2023-03-02T10:04:37.800Z,14.34
2023-03-02T10:13:38.732Z,17.05
2023-03-02T10:25:37.744Z,30.42
2023-03-02T10:28:38.716Z,52.66
2023-03-02T10:39:39.228Z,18.05
2023-03-02T12:03:38.266Z,25.25
2023-03-02T12:13:37.934Z,25.15
2023-03-02T12:14:37.988Z,25.76
2023-03-02T12:15:38.187Z,27.87
2023-03-02T12:16:38.344Z,26.15
2023-03-02T12:17:38.444Z,25.52
2023-03-02T12:18:38.532Z,28.86
2023-03-02T12:19:38.726Z,32.12
2023-03-02T12:20:38.755Z,25.01
2023-03-02T12:21:38.944Z,24.97
2023-03-02T12:22:39.074Z,27.56
2023-03-02T12:23:39.177Z,25.27
2023-03-02T12:24:39.303Z,25.00
2023-03-02T12:25:39.392Z,28.94
2023-03-02T12:26:39.583Z,26.89
2023-03-02T12:27:39.713Z,24.78
2023-03-02T12:28:39.769Z,23.00
2023-03-02T12:29:39.948Z,24.18
2023-03-02T12:30:40.136Z,24.96
2023-03-02T12:31:40.194Z,24.80
2023-03-02T12:32:40.329Z,25.84
2023-03-02T12:33:40.435Z,25.41
2023-03-02T12:34:40.507Z,26.14
2023-03-02T12:35:40.698Z,30.35
2023-03-02T12:36:40.848Z,34.10
2023-03-02T12:37:41.017Z,34.13
2023-03-02T12:38:41.167Z,25.49
2023-03-02T12:39:41.280Z,24.07
2023-03-02T12:40:41.422Z,24.54
2023-03-02T12:41:41.509Z,25.96
2023-03-02T12:42:41.660Z,30.15
2023-03-02T12:43:41.832Z,30.46
2023-03-02T12:44:41.931Z,30.10
2023-03-02T12:45:42.017Z,24.59
2023-03-02T12:46:42.154Z,25.55
2023-03-02T12:57:42.590Z,76.83
2023-03-02T12:58:42.397Z,90.33
2023-03-02T12:59:42.205Z,87.44
2023-03-02T13:00:42.067Z,89.08
2023-03-02T13:01:41.831Z,86.45
2023-03-02T13:02:41.693Z,85.07
2023-03-02T13:03:41.481Z,58.51
2023-03-02T13:04:41.274Z,48.76
2023-03-02T13:05:41.075Z,43.46
2023-03-02T13:06:40.896Z,37.43
2023-03-02T13:07:40.743Z,49.13
2023-03-02T13:08:41.173Z,41.22
2023-03-02T13:09:47.771Z,24.86
2023-03-02T13:10:41.232Z,20.59
2023-03-02T13:11:40.023Z,20.33
2023-03-02T13:12:39.811Z,25.35
2023-03-02T13:13:39.623Z,26.06
2023-03-02T13:14:39.412Z,24.55
2023-03-02T13:15:39.202Z,36.71
2023-03-02T13:16:39.016Z,46.31
2023-03-02T13:17:38.806Z,46.87
2023-03-02T13:18:38.601Z,33.75
2023-03-02T13:19:38.426Z,32.87
2023-03-02T13:20:38.289Z,25.94
2023-03-02T13:21:38.159Z,23.64
2023-03-02T13:22:38.076Z,26.84
2023-03-02T13:23:37.865Z,24.07
2023-03-02T13:48:37.794Z,47.57
2023-03-02T13:49:37.946Z,50.45
2023-03-02T13:50:38.052Z,48.38
2023-03-02T13:51:38.163Z,40.24
2023-03-02T13:52:38.263Z,38.69
2023-03-02T13:53:38.476Z,37.41
2023-03-02T13:54:38.504Z,49.56
2023-03-02T13:55:38.688Z,89.52
2023-03-02T13:56:38.806Z,115.50
2023-03-02T13:57:38.954Z,96.12
2023-03-02T13:58:39.099Z,67.83
2023-03-02T13:59:39.137Z,57.15
2023-03-02T14:00:39.232Z,54.52
2023-03-02T14:01:39.427Z,64.32
2023-03-02T14:02:39.491Z,69.85
2023-03-02T14:03:39.546Z,63.69
2023-03-02T14:04:39.757Z,58.73
2023-03-02T14:05:39.848Z,56.82
2023-03-02T14:06:39.888Z,60.13
2023-03-02T14:07:39.973Z,59.23
2023-03-02T14:08:40.153Z,54.55
2023-03-02T14:09:40.205Z,51.62
2023-03-02T14:10:40.392Z,51.02
2023-03-02T15:04:47.747Z,46.18
2023-03-02T15:06:48.035Z,50.88
2023-03-02T16:05:50.382Z,200.29
2023-03-02T17:00:57.913Z,192.12
2023-03-02T17:01:57.963Z,195.47
2023-03-02T17:02:58.192Z,186.84
2023-03-02T17:03:58.386Z,192.71
2023-03-02T17:04:58.576Z,193.99
2023-03-02T17:05:58.700Z,195.74
2023-03-02T17:07:00.709Z,205.79
2023-03-02T17:07:58.827Z,216.03
2023-03-02T17:08:58.738Z,216.71
2023-03-02T17:09:58.647Z,216.39
2023-03-02T17:10:58.566Z,213.54
2023-03-02T17:11:58.745Z,212.02
2023-03-02T17:12:58.965Z,221.47
2023-03-02T17:13:59.121Z,234.53
2023-03-02T17:14:59.287Z,248.19
2023-03-02T17:15:59.467Z,251.93
2023-03-02T17:16:59.591Z,250.00
2023-03-02T17:17:59.843Z,249.68
2023-03-02T17:19:00.317Z,252.18
2023-03-02T17:19:59.867Z,249.16
2023-03-02T17:20:59.820Z,243.90
2023-03-02T17:21:59.731Z,248.39
2023-03-02T17:22:59.650Z,249.86
2023-03-02T17:23:59.863Z,248.21
2023-03-02T17:25:00.037Z,245.31
2023-03-02T17:26:00.218Z,241.96
2023-03-02T17:27:00.407Z,239.18
2023-03-02T17:28:00.510Z,233.77
2023-03-02T17:29:00.668Z,231.06
2023-03-02T17:30:01.219Z,231.05
2023-03-02T17:31:02.988Z,227.87
2023-03-02T17:32:01.010Z,222.97
2023-03-02T17:33:00.828Z,226.60
2023-03-02T17:34:00.703Z,235.19
2023-03-02T17:35:00.567Z,237.31
2023-03-02T17:36:00.660Z,240.22
2023-03-02T17:37:00.919Z,243.94
2023-03-02T17:38:01.065Z,246.07
2023-03-02T17:39:01.130Z,240.60
2023-03-02T17:40:01.314Z,237.36
2023-03-02T17:41:01.425Z,234.85
2023-03-02T17:42:01.617Z,232.84
2023-03-02T17:43:01.758Z,236.27
2023-03-02T17:44:01.932Z,233.72
2023-03-02T17:45:02.057Z,229.37
2023-03-02T17:46:02.307Z,218.37
2023-03-02T17:47:02.415Z,218.64
2023-03-02T19:09:02.387Z,174.47
2023-03-02T19:10:02.273Z,179.44
2023-03-02T19:11:02.198Z,183.50
2023-03-02T19:12:02.086Z,184.36
2023-03-02T19:13:01.986Z,183.74
2023-03-02T19:14:01.915Z,186.65
2023-03-02T19:15:01.794Z,186.68
2023-03-02T19:16:01.737Z,182.78
2023-03-02T19:17:01.604Z,178.60
2023-03-02T19:18:01.507Z,175.93
2023-03-02T19:19:01.464Z,174.65
2023-03-02T19:20:01.419Z,176.61
2023-03-02T19:21:01.399Z,180.04
2023-03-02T19:22:01.329Z,177.81
2023-03-02T19:23:01.293Z,178.28
2023-03-02T19:24:01.252Z,180.76
2023-03-02T19:25:01.224Z,181.79
2023-03-02T19:26:01.188Z,184.08
2023-03-02T19:27:01.280Z,185.34
2023-03-02T19:28:01.362Z,184.13
2023-03-02T19:29:01.559Z,181.36
2023-03-02T19:30:01.666Z,183.31
2023-03-02T19:31:01.789Z,188.85
2023-03-02T19:32:01.975Z,190.20
2023-03-02T19:33:02.045Z,188.47
2023-03-02T19:34:02.156Z,186.19
2023-03-02T19:35:02.255Z,180.71
2023-03-02T19:36:02.397Z,178.93
2023-03-02T19:37:02.458Z,179.74
2023-03-02T19:38:02.556Z,180.89
2023-03-02T19:39:02.681Z,183.67
2023-03-02T19:40:02.795Z,185.33
2023-03-02T19:41:02.918Z,189.33
2023-03-02T19:42:03.043Z,192.16
2023-03-02T19:43:03.192Z,192.47
2023-03-02T19:44:03.346Z,187.43
2023-03-02T19:45:03.498Z,184.13
2023-03-02T19:46:03.663Z,184.16
2023-03-02T19:47:03.769Z,186.96
2023-03-02T19:48:03.926Z,186.23
2023-03-02T19:49:04.060Z,180.49
2023-03-02T19:50:04.212Z,180.47
2023-03-02T19:51:04.353Z,186.22
2023-03-02T19:52:04.518Z,187.80
2023-03-02T19:53:04.659Z,189.36
2023-03-02T19:54:04.841Z,188.19
2023-03-02T19:55:04.975Z,188.59
2023-03-02T19:56:05.144Z,188.54
2023-03-02T19:57:05.310Z,185.95
2023-03-02T19:58:05.469Z,188.06
2023-03-02T19:59:05.610Z,185.47
2023-03-02T20:00:05.775Z,188.21
2023-03-02T20:01:05.832Z,186.61
2023-03-02T20:02:06.030Z,185.91
2023-03-02T20:03:06.839Z,193.45
2023-03-02T20:04:06.150Z,198.03
2023-03-02T20:05:06.096Z,200.77
2023-03-02T20:06:06.052Z,199.55
2023-03-02T20:07:06.025Z,196.73
2023-03-02T20:08:05.978Z,196.07
2023-03-02T20:09:05.957Z,190.28
2023-03-02T20:10:05.892Z,188.33
2023-03-02T20:11:05.869Z,190.56
2023-03-02T20:12:05.818Z,191.60
2023-03-02T20:13:05.766Z,188.97
2023-03-02T20:14:05.727Z,188.93
2023-03-02T20:15:05.690Z,190.49
2023-03-02T20:16:05.658Z,191.58
2023-03-02T20:17:05.607Z,190.64
2023-03-02T20:18:05.592Z,191.65
2023-03-02T20:19:05.561Z,190.25
2023-03-02T20:20:05.531Z,185.57
2023-03-02T20:21:05.510Z,181.09
2023-03-02T20:22:05.474Z,181.54
2023-03-02T20:23:05.416Z,178.46
2023-03-02T20:24:05.380Z,176.43
2023-03-02T20:25:05.336Z,179.46
2023-03-02T20:26:05.322Z,184.47
2023-03-02T20:27:05.262Z,187.88
2023-03-02T20:28:05.224Z,189.98
2023-03-02T20:29:05.212Z,190.14
2023-03-02T20:30:05.162Z,188.02
2023-03-02T20:31:05.233Z,189.42
2023-03-02T20:32:05.197Z,188.62
2023-03-02T20:33:05.097Z,189.54
2023-03-02T20:34:05.078Z,190.29
2023-03-02T20:35:05.047Z,188.61
2023-03-02T20:36:05.019Z,185.13
2023-03-02T20:37:04.982Z,178.38
2023-03-02T21:50:07.831Z,188.54
2023-03-02T21:51:07.948Z,191.22
2023-03-02T21:52:08.173Z,191.19
2023-03-02T21:53:08.276Z,190.32
2023-03-02T21:54:08.500Z,190.62
2023-03-02T21:55:08.711Z,193.29
2023-03-02T21:56:08.823Z,192.85
2023-03-02T21:57:09.046Z,192.10
2023-03-02T21:58:09.144Z,191.64
2023-03-02T21:59:09.378Z,191.26
2023-03-02T22:00:09.479Z,193.05
2023-03-02T22:01:09.581Z,194.40
2023-03-02T22:02:09.831Z,193.03
2023-03-02T22:03:09.938Z,190.30
2023-03-02T22:04:10.070Z,186.90
2023-03-02T22:05:10.319Z,183.42
2023-03-02T22:06:10.441Z,180.94
2023-03-02T22:07:10.670Z,182.12
2023-03-02T22:08:10.776Z,183.58
2023-03-02T22:09:11.013Z,185.77
2023-03-02T22:10:11.223Z,184.88
2023-03-02T22:11:11.310Z,184.41
2023-03-02T22:54:17.860Z,175.01
2023-03-02T22:55:17.987Z,174.14
2023-03-02T22:56:20.081Z,170.80
2023-03-02T22:57:18.289Z,169.09
2023-03-02T22:58:18.103Z,169.81
2023-03-02T22:59:18.047Z,173.82
2023-03-02T23:00:18.010Z,176.45
2023-03-02T23:01:17.965Z,181.10
2023-03-02T23:02:17.907Z,184.58
2023-03-02T23:03:17.852Z,182.92
2023-03-02T23:04:17.840Z,174.16
2023-03-02T23:05:17.762Z,172.11
2023-03-02T23:11:17.767Z,184.50
2023-03-02T23:12:17.998Z,184.75
2023-03-02T23:13:18.146Z,186.09
2023-03-02T23:14:18.416Z,188.50
2023-03-02T23:15:18.578Z,193.50
2023-03-02T23:16:18.885Z,197.10
2023-03-02T23:17:18.987Z,196.88
2023-03-02T23:18:19.175Z,194.08
2023-03-02T23:19:19.367Z,192.14
2023-03-02T23:20:19.621Z,191.22
2023-03-02T23:21:19.812Z,187.88
2023-03-02T23:22:20.110Z,189.02
2023-03-02T23:23:20.275Z,185.38
2023-03-02T23:24:20.424Z,181.83
2023-03-02T23:25:20.614Z,178.45
2023-03-02T23:26:20.817Z,176.64
2023-03-02T23:27:20.975Z,174.02
2023-03-02T23:28:21.164Z,170.93
2023-03-02T23:29:21.425Z,171.13
2023-03-02T23:30:21.597Z,173.23
2023-03-02T23:31:21.848Z,173.93
2023-03-02T23:32:22.078Z,175.28
2023-03-02T23:33:22.200Z,174.65
2023-03-02T23:34:22.393Z,175.88
2023-03-02T23:35:22.593Z,173.50
2023-03-02T23:36:22.777Z,172.92
2023-03-02T23:37:22.944Z,176.18
2023-03-02T23:38:23.139Z,179.35
2023-03-02T23:39:23.311Z,180.84
2023-03-02T23:40:23.521Z,182.10
2023-03-02T23:41:23.751Z,182.03
2023-03-02T23:42:23.908Z,181.44
2023-03-02T23:43:24.055Z,179.66
2023-03-02T23:44:24.236Z,175.16
2023-03-02T23:45:24.401Z,173.74
2023-03-02T23:46:24.583Z,174.84
2023-03-02T23:47:24.755Z,180.52
2023-03-02T23:48:24.920Z,181.85
2023-03-02T23:49:25.101Z,179.78
2023-03-02T23:50:25.291Z,180.89
2023-03-02T23:51:25.508Z,182.58
2023-03-02T23:52:25.669Z,176.20
2023-03-02T23:53:25.906Z,174.97
2023-03-02T23:54:26.095Z,173.86
2023-03-02T23:55:26.297Z,175.79
2023-03-02T23:56:26.529Z,174.13
2023-03-02T23:57:26.718Z,171.22
2023-03-02T23:58:26.888Z,169.17
2023-03-02T23:59:27.142Z,174.92
